createdAt,value
2018-09-24T00:00:00.841Z,1.07
2018-09-24T00:02:30.872Z,1.00
2018-09-24T00:05:00.845Z,1.03
2018-09-24T00:07:30.713Z,1.00
2018-09-24T00:10:00.475Z,0.90
2018-09-24T00:12:30.545Z,0.90
2018-09-24T00:15:00.766Z,0.97
2018-09-24T00:17:31.175Z,2.13
2018-09-24T00:20:01.287Z,0.87
2018-09-24T00:22:31.052Z,0.90
2018-09-24T00:25:00.426Z,0.80
2018-09-24T00:27:29.967Z,1.00
2018-09-24T00:29:59.681Z,0.90
2018-09-24T00:32:30.394Z,0.70
2018-09-24T00:34:59.159Z,1.00
2018-09-24T00:37:28.540Z,0.90
2018-09-24T00:39:58.093Z,0.93
2018-09-24T00:42:27.376Z,0.80
2018-09-24T00:44:56.141Z,1.07
2018-09-24T00:47:25.198Z,0.90
2018-09-24T00:49:54.488Z,1.10
2018-09-24T00:52:23.962Z,1.03
2018-09-24T00:54:53.648Z,1.00
2018-09-24T00:57:22.919Z,0.97
2018-09-24T00:59:53.022Z,1.00
2018-09-24T01:02:22.687Z,0.90
2018-09-24T01:04:51.983Z,0.90
2018-09-24T01:07:21.157Z,1.10
2018-09-24T01:09:50.485Z,0.90
2018-09-24T01:12:20.009Z,0.97
2018-09-24T01:14:49.768Z,1.00
2018-09-24T01:17:19.993Z,0.87
2018-09-24T01:19:49.200Z,1.00
2018-09-24T01:22:19.168Z,0.80
2018-09-24T01:24:48.043Z,1.00
2018-09-24T01:27:18.321Z,1.70
2018-09-24T01:29:47.338Z,1.10
2018-09-24T01:32:16.304Z,0.90
2018-09-24T01:34:46.052Z,1.60
2018-09-24T01:37:15.624Z,1.00
2018-09-24T01:39:44.877Z,1.20
2018-09-24T01:42:14.102Z,1.20
2018-09-24T01:44:43.310Z,1.20
2018-09-24T01:47:13.556Z,1.17
2018-09-24T01:49:42.935Z,1.20
2018-09-24T01:52:12.380Z,1.07
2018-09-24T01:54:41.900Z,1.00
2018-09-24T01:57:17.770Z,1.23
2018-09-24T01:59:52.247Z,1.27
2018-09-24T02:02:21.936Z,1.30
2018-09-24T02:04:51.571Z,1.17
2018-09-24T02:07:21.247Z,1.30
2018-09-24T02:09:50.460Z,1.23
2018-09-24T02:12:20.386Z,1.30
2018-09-24T02:14:50.511Z,1.00
2018-09-24T02:17:21.217Z,1.00
2018-09-24T02:19:51.468Z,1.07
2018-09-24T02:22:27.920Z,1.10
2018-09-24T02:24:58.201Z,1.50
2018-09-24T02:27:28.192Z,3.57
2018-09-24T02:29:57.992Z,1.30
2018-09-24T02:32:27.381Z,1.50
2018-09-24T02:34:58.103Z,1.37
2018-09-24T02:37:28.031Z,1.27
2018-09-24T02:39:57.488Z,1.13
2018-09-24T02:42:27.138Z,1.27
2018-09-24T02:44:57.123Z,1.23
2018-09-24T02:47:31.521Z,1.10
2018-09-24T02:50:01.318Z,1.20
2018-09-24T02:52:30.953Z,2.93
2018-09-24T02:54:59.642Z,2.57
2018-09-24T02:57:29.853Z,1.83
2018-09-24T02:59:59.250Z,1.00
2018-09-24T03:02:28.511Z,1.00
2018-09-24T03:04:57.801Z,1.00
2018-09-24T03:07:27.427Z,1.00
2018-09-24T03:09:57.016Z,1.30
2018-09-24T03:12:26.236Z,1.30
2018-09-24T03:14:55.567Z,1.50
2018-09-24T03:17:24.990Z,1.50
2018-09-24T03:19:55.039Z,1.70
2018-09-24T03:22:25.848Z,3.17
2018-09-24T03:24:55.881Z,1.50
2018-09-24T03:27:25.192Z,1.57
2018-09-24T03:29:54.484Z,2.97
2018-09-24T03:32:23.394Z,1.67
2018-09-24T03:34:52.607Z,1.80
2018-09-24T03:37:22.461Z,3.40
2018-09-24T03:39:52.272Z,2.80
2018-09-24T03:42:22.489Z,1.60
2018-09-24T03:44:51.855Z,1.80
2018-09-24T03:47:21.676Z,1.30
2018-09-24T03:49:50.162Z,2.13
2018-09-24T03:52:20.064Z,2.13
2018-09-24T03:54:48.814Z,1.93
2018-09-24T03:57:17.606Z,1.70
2018-09-24T03:59:46.421Z,2.23
2018-09-24T04:02:15.139Z,2.07
2018-09-24T04:04:49.118Z,2.40
2018-09-24T04:07:23.124Z,2.13
2018-09-24T04:09:57.840Z,2.30
2018-09-24T04:12:31.764Z,3.40
2018-09-24T04:15:06.742Z,2.50
2018-09-24T04:17:41.317Z,2.30
2018-09-24T04:20:15.452Z,2.37
2018-09-24T04:22:49.858Z,3.27
2018-09-24T04:25:24.278Z,2.93
2018-09-24T04:27:58.596Z,2.70
2018-09-24T04:30:32.855Z,3.43
2018-09-24T04:33:07.149Z,3.00
2018-09-24T04:35:41.297Z,3.27
2018-09-24T04:38:15.410Z,2.63
2018-09-24T04:40:50.133Z,4.00
2018-09-24T04:43:24.843Z,3.33
2018-09-24T04:45:59.489Z,5.10
2018-09-24T04:48:34.314Z,4.87
2018-09-24T04:51:09.107Z,4.40
2018-09-24T04:53:43.840Z,4.77
2018-09-24T04:56:17.853Z,4.10
2018-09-24T04:58:52.163Z,3.60
2018-09-24T05:01:26.543Z,4.30
2018-09-24T05:04:00.816Z,3.53
2018-09-24T05:06:34.987Z,3.13
2018-09-24T05:09:09.096Z,8.20
2018-09-24T05:11:43.714Z,5.50
2018-09-24T05:14:18.080Z,6.60
2018-09-24T05:16:52.405Z,6.20
2018-09-24T05:19:26.936Z,5.30
2018-09-24T05:22:00.991Z,4.10
2018-09-24T05:24:34.933Z,3.50
2018-09-24T05:27:09.077Z,7.20
2018-09-24T05:29:43.378Z,6.07
2018-09-24T05:32:18.232Z,5.03
2018-09-24T05:34:52.578Z,6.63
2018-09-24T05:37:27.450Z,6.13
2018-09-24T05:40:01.375Z,6.33
2018-09-24T05:42:35.837Z,5.57
2018-09-24T05:45:10.282Z,4.10
2018-09-24T05:47:44.728Z,4.67
2018-09-24T05:50:19.862Z,4.63
2018-09-24T05:52:53.565Z,6.43
2018-09-24T05:55:28.560Z,4.87
2018-09-24T05:58:03.556Z,4.80
2018-09-24T06:00:37.959Z,5.63
2018-09-24T06:03:12.172Z,4.87
2018-09-24T06:05:47.245Z,5.53
2018-09-24T06:08:21.287Z,3.97
2018-09-24T06:10:55.991Z,8.27
2018-09-24T06:13:30.728Z,4.43
2018-09-24T06:16:05.718Z,6.37
2018-09-24T06:18:39.573Z,6.57
2018-09-24T06:21:14.912Z,6.37
2018-09-24T06:23:49.509Z,9.50
2018-09-24T06:26:23.740Z,8.53
2018-09-24T06:28:58.495Z,5.73
2018-09-24T06:31:34.200Z,5.00
2018-09-24T06:34:08.366Z,7.57
2018-09-24T06:36:42.805Z,7.73
2018-09-24T06:39:17.151Z,4.73
2018-09-24T06:41:52.334Z,6.63
2018-09-24T06:44:26.711Z,5.03
2018-09-24T06:47:01.138Z,6.60
2018-09-24T06:49:35.798Z,4.63
2018-09-24T06:52:10.323Z,5.70
2018-09-24T06:54:44.797Z,5.33
2018-09-24T06:57:19.426Z,5.07
2018-09-24T06:59:53.662Z,5.37
2018-09-24T07:02:28.902Z,5.13
2018-09-24T07:05:03.732Z,4.97
2018-09-24T07:07:38.544Z,7.13
2018-09-24T07:10:13.379Z,4.37
2018-09-24T07:12:48.016Z,4.67
2018-09-24T07:15:22.539Z,7.13
2018-09-24T07:17:56.511Z,5.80
2018-09-24T07:20:30.870Z,6.97
2018-09-24T07:23:04.777Z,4.50
2018-09-24T07:25:39.043Z,4.70
2018-09-24T07:28:14.010Z,4.23
2018-09-24T07:30:48.696Z,4.07
2018-09-24T07:33:24.128Z,6.27
2018-09-24T07:35:58.534Z,5.00
2018-09-24T07:38:34.068Z,8.70
2018-09-24T07:41:08.547Z,5.90
2018-09-24T07:43:43.338Z,5.47
2018-09-24T07:46:18.045Z,4.67
2018-09-24T07:48:52.699Z,6.50
2018-09-24T07:51:27.604Z,4.90
2018-09-24T07:54:02.195Z,5.40
2018-09-24T07:56:36.567Z,5.13
2018-09-24T07:59:11.076Z,7.17
2018-09-24T08:01:45.440Z,7.53
2018-09-24T08:04:20.222Z,5.13
2018-09-24T08:06:54.942Z,6.57
2018-09-24T08:09:30.304Z,5.37
2018-09-24T08:12:04.993Z,6.57
2018-09-24T08:14:39.651Z,3.23
2018-09-24T08:17:14.990Z,5.87
2018-09-24T08:19:49.885Z,4.03
2018-09-24T08:22:26.020Z,5.37
2018-09-24T08:25:01.015Z,4.57
2018-09-24T08:27:35.541Z,5.33
2018-09-24T08:30:10.312Z,4.37
2018-09-24T08:32:45.457Z,5.83
2018-09-24T08:35:19.624Z,6.20
2018-09-24T08:37:53.918Z,5.50
2018-09-24T08:40:28.336Z,3.30
2018-09-24T08:43:02.849Z,3.90
2018-09-24T08:45:37.158Z,4.60
2018-09-24T08:48:11.318Z,5.90
2018-09-24T08:50:45.488Z,9.67
2018-09-24T08:53:19.424Z,7.60
2018-09-24T08:55:54.222Z,7.53
2018-09-24T08:58:29.181Z,6.23
2018-09-24T09:01:03.292Z,5.70
2018-09-24T09:03:37.622Z,7.10
2018-09-24T09:06:12.713Z,5.70
2018-09-24T09:08:47.288Z,5.53
2018-09-24T09:11:21.229Z,3.43
2018-09-24T09:13:55.248Z,5.00
2018-09-24T09:16:29.439Z,8.20
2018-09-24T09:19:03.888Z,3.90
2018-09-24T09:21:37.724Z,6.30
2018-09-24T09:24:11.699Z,7.17
2018-09-24T09:26:45.932Z,4.73
2018-09-24T09:29:20.480Z,6.97
2018-09-24T09:31:54.867Z,6.77
2018-09-24T09:34:29.772Z,5.00
2018-09-24T09:37:03.936Z,6.93
2018-09-24T09:39:38.551Z,6.17
2018-09-24T09:42:13.391Z,9.23
2018-09-24T09:44:47.949Z,6.73
2018-09-24T09:47:22.887Z,4.10
2018-09-24T09:49:57.527Z,10.27
2018-09-24T09:52:31.926Z,4.93
2018-09-24T09:55:06.652Z,3.10
2018-09-24T09:57:40.985Z,3.53
2018-09-24T10:00:15.929Z,3.60
2018-09-24T10:02:50.564Z,3.07
2018-09-24T10:05:24.571Z,4.93
2018-09-24T10:07:58.480Z,3.80
2018-09-24T10:10:33.047Z,4.10
2018-09-24T10:13:07.422Z,4.03
2018-09-24T10:15:42.846Z,5.33
2018-09-24T10:18:17.948Z,3.77
2018-09-24T10:20:53.052Z,6.07
2018-09-24T10:23:27.657Z,2.97
2018-09-24T10:26:02.907Z,4.40
2018-09-24T10:28:37.616Z,6.37
2018-09-24T10:31:13.443Z,6.73
2018-09-24T10:33:48.153Z,4.40
2018-09-24T10:36:23.540Z,2.93
2018-09-24T10:38:57.805Z,2.60
2018-09-24T10:41:32.439Z,3.43
2018-09-24T10:44:08.456Z,4.67
2018-09-24T10:46:43.477Z,1.60
2018-09-24T10:49:18.033Z,2.73
2018-09-24T10:51:53.297Z,3.00
2018-09-24T10:54:28.275Z,4.53
2018-09-24T10:57:04.004Z,4.20
2018-09-24T10:59:38.844Z,7.23
2018-09-24T11:02:19.320Z,3.03
2018-09-24T11:04:54.137Z,4.17
2018-09-24T11:07:29.470Z,5.03
2018-09-24T11:10:04.217Z,2.60
2018-09-24T11:12:39.306Z,2.07
2018-09-24T11:15:14.101Z,2.73
2018-09-24T11:17:48.715Z,3.00
2018-09-24T11:20:22.687Z,5.07
2018-09-24T11:22:57.563Z,4.43
2018-09-24T11:25:32.451Z,1.93
2018-09-24T11:28:07.775Z,2.57
2018-09-24T11:30:42.655Z,1.60
2018-09-24T11:33:17.594Z,4.27
2018-09-24T11:35:52.317Z,4.87
2018-09-24T11:38:26.776Z,3.80
2018-09-24T11:41:02.201Z,5.33
2018-09-24T11:43:36.424Z,2.87
2018-09-24T11:46:11.645Z,2.53
2018-09-24T11:48:46.793Z,5.83
2018-09-24T11:51:21.151Z,4.80
2018-09-24T11:53:55.821Z,4.97
2018-09-24T11:56:31.356Z,4.53
2018-09-24T11:59:06.202Z,2.57
2018-09-24T12:01:41.563Z,2.13
2018-09-24T12:04:16.684Z,6.43
2018-09-24T12:06:52.554Z,1.30
2018-09-24T12:09:26.884Z,4.70
2018-09-24T12:12:01.821Z,4.23
2018-09-24T12:14:36.630Z,4.13
2018-09-24T12:17:11.374Z,4.97
2018-09-24T12:19:45.792Z,3.90
2018-09-24T12:22:21.379Z,5.13
2018-09-24T12:24:56.465Z,2.90
2018-09-24T12:27:31.440Z,1.50
2018-09-24T12:30:06.227Z,3.30
2018-09-24T12:32:40.348Z,3.00
2018-09-24T12:35:14.819Z,2.33
2018-09-24T12:37:49.918Z,2.03
2018-09-24T12:40:25.528Z,4.47
2018-09-24T12:43:00.072Z,2.83
2018-09-24T12:45:34.894Z,2.80
2018-09-24T12:48:09.554Z,1.57
2018-09-24T12:50:44.324Z,5.53
2018-09-24T12:53:18.706Z,1.70
2018-09-24T12:55:53.946Z,6.63
2018-09-24T12:58:29.218Z,3.30
2018-09-24T13:01:04.475Z,1.77
2018-09-24T13:03:38.943Z,3.30
2018-09-24T13:06:13.875Z,4.30
2018-09-24T13:08:49.028Z,4.03
2018-09-24T13:11:25.491Z,4.63
2018-09-24T13:14:01.035Z,2.83
2018-09-24T13:16:36.265Z,3.63
2018-09-24T13:19:10.981Z,2.80
2018-09-24T13:21:47.031Z,3.50
2018-09-24T13:24:21.613Z,4.60
2018-09-24T13:26:57.704Z,3.40
2018-09-24T13:29:32.535Z,2.87
2018-09-24T13:32:07.259Z,2.73
2018-09-24T13:34:42.067Z,1.67
2018-09-24T13:37:16.935Z,3.10
2018-09-24T13:39:51.567Z,3.57
2018-09-24T13:42:28.323Z,5.33
2018-09-24T13:45:02.405Z,4.40
2018-09-24T13:47:37.264Z,2.63
2018-09-24T13:50:11.874Z,2.63
2018-09-24T13:52:46.723Z,3.40
2018-09-24T13:55:21.440Z,2.53
2018-09-24T13:57:56.256Z,1.60
2018-09-24T14:00:30.908Z,2.10
2018-09-24T14:03:05.156Z,5.47
2018-09-24T14:05:40.258Z,3.33
2018-09-24T14:08:14.774Z,1.60
2018-09-24T14:10:49.695Z,2.70
2018-09-24T14:13:26.132Z,2.43
2018-09-24T14:16:01.439Z,2.83
2018-09-24T14:18:36.333Z,9.87
2018-09-24T14:21:11.281Z,3.37
2018-09-24T14:23:46.992Z,2.03
2018-09-24T14:26:22.173Z,2.70
2018-09-24T14:28:57.620Z,3.83
2018-09-24T14:31:33.266Z,6.03
2018-09-24T14:34:08.628Z,3.57
2018-09-24T14:36:43.647Z,2.87
2018-09-24T14:39:19.571Z,4.77
2018-09-24T14:41:56.659Z,3.17
2018-09-24T14:44:32.137Z,3.70
2018-09-24T14:47:07.028Z,2.03
2018-09-24T14:49:41.964Z,4.03
2018-09-24T14:52:16.903Z,2.27
2018-09-24T14:54:51.559Z,4.87
2018-09-24T14:57:26.552Z,3.90
2018-09-24T15:00:00.533Z,5.43
2018-09-24T15:02:36.811Z,2.17
2018-09-24T15:05:11.880Z,2.60
2018-09-24T15:07:46.712Z,3.63
2018-09-24T15:10:22.039Z,2.33
2018-09-24T15:12:56.859Z,3.13
2018-09-24T15:15:33.303Z,4.73
2018-09-24T15:18:08.383Z,5.13
2018-09-24T15:20:43.450Z,3.27
2018-09-24T15:23:18.037Z,2.60
2018-09-24T15:25:52.625Z,2.67
2018-09-24T15:28:28.452Z,2.87
2018-09-24T15:31:03.285Z,2.80
2018-09-24T15:33:38.153Z,3.27
2018-09-24T15:36:13.486Z,5.77
2018-09-24T15:38:48.677Z,3.33
2018-09-24T15:41:23.301Z,2.27
2018-09-24T15:43:58.310Z,4.37
2018-09-24T15:46:33.121Z,5.07
2018-09-24T15:49:08.276Z,2.93
2018-09-24T15:51:43.007Z,7.60
2018-09-24T15:54:18.074Z,2.47
2018-09-24T15:56:52.783Z,3.13
2018-09-24T15:59:27.513Z,1.63
2018-09-24T16:02:01.915Z,3.33
2018-09-24T16:04:37.623Z,2.30
2018-09-24T16:07:12.724Z,2.43
2018-09-24T16:09:47.323Z,5.63
2018-09-24T16:12:22.757Z,5.40
2018-09-24T16:14:57.949Z,3.07
2018-09-24T16:17:32.828Z,3.93
2018-09-24T16:20:07.265Z,1.70
2018-09-24T16:22:42.395Z,3.23
2018-09-24T16:25:16.825Z,3.93
2018-09-24T16:27:51.852Z,4.80
2018-09-24T16:30:26.377Z,3.07
2018-09-24T16:33:01.072Z,6.60
2018-09-24T16:35:35.309Z,3.47
2018-09-24T16:38:10.017Z,3.80
2018-09-24T16:40:44.715Z,3.07
2018-09-24T16:43:19.262Z,3.47
2018-09-24T16:45:53.939Z,2.87
2018-09-24T16:48:28.929Z,4.53
2018-09-24T16:51:03.576Z,3.60
2018-09-24T16:53:37.791Z,3.10
2018-09-24T16:56:11.809Z,2.40
2018-09-24T16:58:46.654Z,4.27
2018-09-24T17:01:21.782Z,3.63
2018-09-24T17:03:56.207Z,7.07
2018-09-24T17:06:31.477Z,2.13
2018-09-24T17:09:06.004Z,2.23
2018-09-24T17:11:41.234Z,4.37
2018-09-24T17:14:15.707Z,4.30
2018-09-24T17:16:50.413Z,1.67
2018-09-24T17:19:24.784Z,2.73
2018-09-24T17:21:58.967Z,2.70
2018-09-24T17:24:33.490Z,5.40
2018-09-24T17:27:08.607Z,3.17
2018-09-24T17:29:42.535Z,6.63
2018-09-24T17:32:16.869Z,8.77
2018-09-24T17:34:51.501Z,5.00
2018-09-24T17:37:25.975Z,2.63
2018-09-24T17:40:00.460Z,2.57
2018-09-24T17:42:35.416Z,2.83
2018-09-24T17:45:09.900Z,3.80
2018-09-24T17:47:44.394Z,3.70
2018-09-24T17:50:18.759Z,3.77
2018-09-24T17:52:53.527Z,4.53
2018-09-24T17:55:27.790Z,4.07
2018-09-24T17:58:02.282Z,6.97
2018-09-24T18:00:37.263Z,6.43
2018-09-24T18:03:11.872Z,3.97
2018-09-24T18:05:47.382Z,4.10
2018-09-24T18:08:22.170Z,4.50
2018-09-24T18:10:57.096Z,6.07
2018-09-24T18:13:31.502Z,3.37
2018-09-24T18:16:06.343Z,5.63
2018-09-24T18:18:40.654Z,5.73
2018-09-24T18:21:14.867Z,6.63
2018-09-24T18:23:49.355Z,7.13
2018-09-24T18:26:24.090Z,9.63
2018-09-24T18:28:58.301Z,5.93
2018-09-24T18:31:32.352Z,6.47
2018-09-24T18:34:06.545Z,5.50
2018-09-24T18:36:42.058Z,8.17
2018-09-24T18:39:17.280Z,6.63
2018-09-24T18:41:52.600Z,5.67
2018-09-24T18:44:27.062Z,8.33
2018-09-24T18:47:01.399Z,8.23
2018-09-24T18:49:36.491Z,5.57
2018-09-24T18:52:11.663Z,8.60
2018-09-24T18:54:46.563Z,4.47
2018-09-24T18:57:21.398Z,5.77
2018-09-24T18:59:56.882Z,6.00
2018-09-24T19:02:31.678Z,9.40
2018-09-24T19:05:06.685Z,11.67
2018-09-24T19:07:41.965Z,4.23
2018-09-24T19:10:23.585Z,12.23
2018-09-24T19:12:57.759Z,6.50
2018-09-24T19:15:32.751Z,7.67
2018-09-24T19:18:07.339Z,5.20
2018-09-24T19:20:42.351Z,5.80
2018-09-24T19:23:17.184Z,4.87
2018-09-24T19:25:52.243Z,4.53
2018-09-24T19:28:27.125Z,6.23
2018-09-24T19:31:02.291Z,6.67
2018-09-24T19:33:36.767Z,10.60
2018-09-24T19:36:11.820Z,5.50
2018-09-24T19:38:46.733Z,7.93
2018-09-24T19:41:21.550Z,6.97
2018-09-24T19:43:56.996Z,14.60
2018-09-24T19:46:31.780Z,12.20
2018-09-24T19:49:06.077Z,13.80
2018-09-24T19:51:40.035Z,10.33
2018-09-24T19:54:14.246Z,10.27
2018-09-24T19:56:49.004Z,8.07
2018-09-24T19:59:23.452Z,9.67
2018-09-24T20:01:58.337Z,8.93
2018-09-24T20:04:32.775Z,5.57
2018-09-24T20:07:07.995Z,6.27
2018-09-24T20:09:42.273Z,8.57
2018-09-24T20:12:16.499Z,7.40
2018-09-24T20:14:52.079Z,11.80
2018-09-24T20:17:26.868Z,11.80
2018-09-24T20:20:01.287Z,8.60
2018-09-24T20:22:36.023Z,10.07
2018-09-24T20:25:10.718Z,8.80
2018-09-24T20:27:45.477Z,10.47
2018-09-24T20:30:19.964Z,8.30
2018-09-24T20:32:56.040Z,9.07
2018-09-24T20:35:30.229Z,7.37
2018-09-24T20:38:05.223Z,4.53
2018-09-24T20:40:39.820Z,5.33
2018-09-24T20:43:14.413Z,9.10
2018-09-24T20:45:48.441Z,9.53
2018-09-24T20:48:24.737Z,8.23
2018-09-24T20:50:59.551Z,9.53
2018-09-24T20:53:37.370Z,7.50
2018-09-24T20:56:11.845Z,8.63
2018-09-24T20:58:46.499Z,7.87
2018-09-24T21:01:21.799Z,9.60
2018-09-24T21:03:56.880Z,5.53
2018-09-24T21:06:30.908Z,4.83
2018-09-24T21:09:05.410Z,5.10
2018-09-24T21:11:40.010Z,4.70
2018-09-24T21:14:15.412Z,10.17
2018-09-24T21:16:50.388Z,8.07
2018-09-24T21:19:25.394Z,6.43
2018-09-24T21:21:59.695Z,6.60
2018-09-24T21:24:34.823Z,7.00
2018-09-24T21:27:09.316Z,7.33
2018-09-24T21:29:43.635Z,5.40
2018-09-24T21:32:19.205Z,7.27
2018-09-24T21:34:54.095Z,5.47
2018-09-24T21:37:28.897Z,5.90
2018-09-24T21:40:03.983Z,6.73
2018-09-24T21:42:39.252Z,4.17
2018-09-24T21:45:14.156Z,3.60
2018-09-24T21:47:48.782Z,4.30
2018-09-24T21:50:24.056Z,7.90
2018-09-24T21:52:59.422Z,5.00
2018-09-24T21:55:33.807Z,4.67
2018-09-24T21:58:08.638Z,3.27
2018-09-24T22:00:43.676Z,4.53
2018-09-24T22:03:18.432Z,4.30
2018-09-24T22:05:53.143Z,2.37
2018-09-24T22:08:27.619Z,4.20
2018-09-24T22:11:02.994Z,2.90
2018-09-24T22:13:37.769Z,6.43
2018-09-24T22:16:12.455Z,4.23
2018-09-24T22:18:47.652Z,5.97
2018-09-24T22:21:22.921Z,10.97
2018-09-24T22:23:57.608Z,2.83
2018-09-24T22:26:32.172Z,8.53
2018-09-24T22:29:06.730Z,10.27
2018-09-24T22:31:41.247Z,5.17
2018-09-24T22:34:15.804Z,5.37
2018-09-24T22:36:50.584Z,2.83
2018-09-24T22:39:25.133Z,6.37
2018-09-24T22:41:59.902Z,3.17
2018-09-24T22:44:34.356Z,2.73
2018-09-24T22:47:09.240Z,2.67
2018-09-24T22:49:44.134Z,5.17
2018-09-24T22:52:18.612Z,2.33
2018-09-24T22:54:53.325Z,4.20
2018-09-24T22:57:27.960Z,3.13
2018-09-24T23:00:02.346Z,2.23
2018-09-24T23:02:37.188Z,3.23
2018-09-24T23:05:11.824Z,5.90
2018-09-24T23:07:46.790Z,2.93
2018-09-24T23:10:21.224Z,6.20
2018-09-24T23:12:56.321Z,4.30
2018-09-24T23:15:31.050Z,2.73
2018-09-24T23:18:05.741Z,2.33
2018-09-24T23:20:40.195Z,4.53
2018-09-24T23:23:15.277Z,3.50
2018-09-24T23:25:54.923Z,4.73
2018-09-24T23:28:29.894Z,3.60
2018-09-24T23:31:04.580Z,4.17
2018-09-24T23:33:39.483Z,3.10
2018-09-24T23:36:14.064Z,2.80
2018-09-24T23:38:49.023Z,3.43
2018-09-24T23:41:23.646Z,2.37
2018-09-24T23:43:58.431Z,3.30
2018-09-24T23:46:33.769Z,12.33
2018-09-24T23:49:08.405Z,7.80
2018-09-24T23:51:42.830Z,6.93
2018-09-24T23:54:17.723Z,4.57
2018-09-24T23:56:53.414Z,8.57
2018-09-24T23:59:28.185Z,7.70
